sensor_id;sensor_type;location;lat;lon;timestamp;pressure;altitude;pressure_sealevel;temperature;humidity
52975;BME280;38839;45.186;5.720;2023-12-04T00:02:22;99410.94;;;-0.84;100.00
52975;BME280;38839;45.186;5.720;2023-12-04T00:04:47;99410.00;;;-0.86;100.00
52975;BME280;38839;45.186;5.720;2023-12-04T00:07:13;99397.19;;;-0.86;100.00
52975;BME280;38839;45.186;5.720;2023-12-04T00:09:38;99410.13;;;-0.83;100.00
52975;BME280;38839;45.186;5.720;2023-12-04T00:12:04;99410.72;;;-0.88;100.00
52975;BME280;38839;45.186;5.720;2023-12-04T00:14:29;99400.03;;;-0.97;100.00
52975;BME280;38839;45.186;5.720;2023-12-04T00:16:55;99403.72;;;-1.10;100.00
52975;BME280;38839;45.186;5.720;2023-12-04T00:19:20;99400.94;;;-1.15;100.00
52975;BME280;38839;45.186;5.720;2023-12-04T00:21:46;99384.97;;;-1.09;100.00
52975;BME280;38839;45.186;5.720;2023-12-04T00:24:11;99375.56;;;-1.10;100.00
52975;BME280;38839;45.186;5.720;2023-12-04T00:26:36;99381.63;;;-1.08;100.00
52975;BME280;38839;45.186;5.720;2023-12-04T00:29:02;99379.81;;;-1.11;100.00
52975;BME280;38839;45.186;5.720;2023-12-04T00:31:27;99374.81;;;-1.08;100.00
52975;BME280;38839;45.186;5.720;2023-12-04T00:33:53;99364.28;;;-0.96;100.00
52975;BME280;38839;45.186;5.720;2023-12-04T00:36:18;99369.50;;;-0.93;100.00
52975;BME280;38839;45.186;5.720;2023-12-04T00:38:45;99361.03;;;-0.92;100.00
52975;BME280;38839;45.186;5.720;2023-12-04T00:41:11;99350.25;;;-0.85;100.00
52975;BME280;38839;45.186;5.720;2023-12-04T00:43:36;99347.78;;;-0.83;100.00
52975;BME280;38839;45.186;5.720;2023-12-04T00:46:02;99340.28;;;-0.78;100.00
52975;BME280;38839;45.186;5.720;2023-12-04T00:48:27;99326.53;;;-0.81;100.00
52975;BME280;38839;45.186;5.720;2023-12-04T00:50:52;99333.16;;;-0.86;100.00
52975;BME280;38839;45.186;5.720;2023-12-04T00:53:18;99328.31;;;-0.79;100.00
52975;BME280;38839;45.186;5.720;2023-12-04T00:55:43;99331.81;;;-0.77;100.00
52975;BME280;38839;45.186;5.720;2023-12-04T00:58:08;99326.97;;;-0.71;100.00
52975;BME280;38839;45.186;5.720;2023-12-04T01:00:34;99315.75;;;-0.73;100.00
52975;BME280;38839;45.186;5.720;2023-12-04T01:02:59;99311.31;;;-0.77;100.00
52975;BME280;38839;45.186;5.720;2023-12-04T01:05:24;99327.81;;;-0.90;100.00
52975;BME280;38839;45.186;5.720;2023-12-04T01:07:50;99322.22;;;-0.82;100.00
52975;BME280;38839;45.186;5.720;2023-12-04T01:10:16;99321.13;;;-0.87;100.00
52975;BME280;38839;45.186;5.720;2023-12-04T01:12:41;99322.81;;;-1.07;100.00
52975;BME280;38839;45.186;5.720;2023-12-04T01:15:07;99316.34;;;-0.98;100.00
52975;BME280;38839;45.186;5.720;2023-12-04T01:17:32;99316.16;;;-0.84;100.00
52975;BME280;38839;45.186;5.720;2023-12-04T01:19:58;99313.06;;;-0.76;100.00
52975;BME280;38839;45.186;5.720;2023-12-04T01:22:23;99311.59;;;-0.71;100.00
52975;BME280;38839;45.186;5.720;2023-12-04T01:24:49;99313.88;;;-0.77;100.00
52975;BME280;38839;45.186;5.720;2023-12-04T01:27:14;99327.91;;;-0.69;100.00
52975;BME280;38839;45.186;5.720;2023-12-04T01:29:39;99319.47;;;-0.67;100.00
52975;BME280;38839;45.186;5.720;2023-12-04T01:32:05;99317.78;;;-0.66;100.00
52975;BME280;38839;45.186;5.720;2023-12-04T01:34:30;99319.53;;;-0.65;100.00
52975;BME280;38839;45.186;5.720;2023-12-04T01:36:56;99306.84;;;-0.62;100.00
52975;BME280;38839;45.186;5.720;2023-12-04T01:39:21;99306.50;;;-0.50;100.00
52975;BME280;38839;45.186;5.720;2023-12-04T01:41:46;99316.41;;;-0.58;100.00
52975;BME280;38839;45.186;5.720;2023-12-04T01:44:12;99310.00;;;-0.48;100.00
52975;BME280;38839;45.186;5.720;2023-12-04T01:46:37;99325.53;;;-0.45;100.00
52975;BME280;38839;45.186;5.720;2023-12-04T01:49:03;99320.06;;;-0.53;100.00
52975;BME280;38839;45.186;5.720;2023-12-04T01:51:29;99318.66;;;-0.46;100.00
52975;BME280;38839;45.186;5.720;2023-12-04T01:53:55;99318.13;;;-0.39;100.00
52975;BME280;38839;45.186;5.720;2023-12-04T01:56:23;99313.09;;;-0.36;100.00
52975;BME280;38839;45.186;5.720;2023-12-04T01:58:49;99324.91;;;-0.39;100.00
52975;BME280;38839;45.186;5.720;2023-12-04T02:01:15;99317.38;;;-0.36;100.00
52975;BME280;38839;45.186;5.720;2023-12-04T02:03:41;99325.19;;;-0.53;100.00
52975;BME280;38839;45.186;5.720;2023-12-04T02:06:07;99319.88;;;-0.57;100.00
52975;BME280;38839;45.186;5.720;2023-12-04T02:08:34;99326.53;;;-0.42;100.00
52975;BME280;38839;45.186;5.720;2023-12-04T02:11:00;99332.75;;;-0.36;100.00
52975;BME280;38839;45.186;5.720;2023-12-04T02:13:26;99326.88;;;-0.34;100.00
52975;BME280;38839;45.186;5.720;2023-12-04T02:15:53;99315.19;;;-0.27;100.00
52975;BME280;38839;45.186;5.720;2023-12-04T02:18:19;99316.81;;;-0.29;100.00
52975;BME280;38839;45.186;5.720;2023-12-04T02:20:46;99304.94;;;-0.27;100.00
52975;BME280;38839;45.186;5.720;2023-12-04T02:23:11;99295.50;;;-0.28;100.00
52975;BME280;38839;45.186;5.720;2023-12-04T02:25:37;99281.31;;;-0.20;100.00
52975;BME280;38839;45.186;5.720;2023-12-04T02:28:06;99273.53;;;-0.43;100.00
52975;BME280;38839;45.186;5.720;2023-12-04T02:30:34;99271.50;;;-0.50;100.00
52975;BME280;38839;45.186;5.720;2023-12-04T02:33:05;99254.72;;;-0.43;100.00
52975;BME280;38839;45.186;5.720;2023-12-04T02:35:32;99254.34;;;-0.31;100.00
52975;BME280;38839;45.186;5.720;2023-12-04T02:38:00;99250.03;;;-0.32;100.00
52975;BME280;38839;45.186;5.720;2023-12-04T02:40:26;99234.31;;;-0.61;100.00
52975;BME280;38839;45.186;5.720;2023-12-04T02:42:52;99233.22;;;-0.66;100.00
52975;BME280;38839;45.186;5.720;2023-12-04T02:45:18;99212.63;;;-0.48;100.00
52975;BME280;38839;45.186;5.720;2023-12-04T02:47:43;99205.00;;;-0.47;100.00
52975;BME280;38839;45.186;5.720;2023-12-04T02:50:09;99206.63;;;-0.49;100.00
52975;BME280;38839;45.186;5.720;2023-12-04T02:52:34;99211.69;;;-0.50;100.00
52975;BME280;38839;45.186;5.720;2023-12-04T02:55:00;99194.63;;;-0.50;100.00
52975;BME280;38839;45.186;5.720;2023-12-04T02:57:25;99199.31;;;-0.39;100.00
52975;BME280;38839;45.186;5.720;2023-12-04T02:59:50;99176.94;;;-0.44;100.00
52975;BME280;38839;45.186;5.720;2023-12-04T03:02:16;99207.75;;;-0.42;100.00
52975;BME280;38839;45.186;5.720;2023-12-04T03:04:41;99193.75;;;-0.50;100.00
52975;BME280;38839;45.186;5.720;2023-12-04T03:07:07;99194.63;;;-0.50;100.00
52975;BME280;38839;45.186;5.720;2023-12-04T03:09:32;99178.06;;;-0.58;100.00
52975;BME280;38839;45.186;5.720;2023-12-04T03:11:57;99197.88;;;-0.54;100.00
52975;BME280;38839;45.186;5.720;2023-12-04T03:14:23;99165.00;;;-0.64;100.00
52975;BME280;38839;45.186;5.720;2023-12-04T03:16:49;99169.84;;;-0.70;100.00
52975;BME280;38839;45.186;5.720;2023-12-04T03:19:14;99147.47;;;-0.74;100.00
52975;BME280;38839;45.186;5.720;2023-12-04T03:21:40;99164.47;;;-0.76;100.00
52975;BME280;38839;45.186;5.720;2023-12-04T03:24:05;99150.63;;;-0.82;100.00
52975;BME280;38839;45.186;5.720;2023-12-04T03:26:31;99167.00;;;-0.78;100.00
52975;BME280;38839;45.186;5.720;2023-12-04T03:28:56;99146.13;;;-0.66;100.00
52975;BME280;38839;45.186;5.720;2023-12-04T03:31:22;99153.00;;;-0.65;100.00
52975;BME280;38839;45.186;5.720;2023-12-04T03:33:48;99145.31;;;-0.65;100.00
52975;BME280;38839;45.186;5.720;2023-12-04T03:36:13;99158.38;;;-0.59;100.00
52975;BME280;38839;45.186;5.720;2023-12-04T03:38:39;99143.75;;;-0.62;100.00
52975;BME280;38839;45.186;5.720;2023-12-04T03:41:04;99134.63;;;-0.55;100.00
52975;BME280;38839;45.186;5.720;2023-12-04T03:43:29;99144.19;;;-0.51;100.00
52975;BME280;38839;45.186;5.720;2023-12-04T03:45:55;99140.00;;;-0.49;100.00
52975;BME280;38839;45.186;5.720;2023-12-04T03:48:20;99129.63;;;-0.52;100.00
52975;BME280;38839;45.186;5.720;2023-12-04T03:50:46;99127.53;;;-0.39;100.00
52975;BME280;38839;45.186;5.720;2023-12-04T03:53:11;99150.31;;;-0.26;100.00
52975;BME280;38839;45.186;5.720;2023-12-04T03:55:37;99113.81;;;-0.19;100.00
52975;BME280;38839;45.186;5.720;2023-12-04T03:58:03;99126.19;;;-0.09;100.00
52975;BME280;38839;45.186;5.720;2023-12-04T04:00:28;99123.75;;;-0.06;100.00
52975;BME280;38839;45.186;5.720;2023-12-04T04:02:53;99116.84;;;-0.07;100.00
52975;BME280;38839;45.186;5.720;2023-12-04T04:05:19;99112.91;;;0.02;100.00
52975;BME280;38839;45.186;5.720;2023-12-04T04:07:44;99117.34;;;0.06;100.00
52975;BME280;38839;45.186;5.720;2023-12-04T04:10:10;99111.03;;;-0.03;100.00
52975;BME280;38839;45.186;5.720;2023-12-04T04:12:35;99081.88;;;-0.05;100.00
52975;BME280;38839;45.186;5.720;2023-12-04T04:15:01;99112.81;;;-0.02;100.00
52975;BME280;38839;45.186;5.720;2023-12-04T04:17:26;99112.19;;;0.06;100.00
52975;BME280;38839;45.186;5.720;2023-12-04T04:19:52;99111.97;;;-0.01;100.00
52975;BME280;38839;45.186;5.720;2023-12-04T04:22:21;99110.41;;;0.03;100.00
52975;BME280;38839;45.186;5.720;2023-12-04T04:24:48;99095.31;;;-0.12;100.00
52975;BME280;38839;45.186;5.720;2023-12-04T04:27:13;99107.91;;;-0.18;100.00
52975;BME280;38839;45.186;5.720;2023-12-04T04:29:38;99111.63;;;-0.10;100.00
52975;BME280;38839;45.186;5.720;2023-12-04T04:32:04;99097.75;;;-0.15;100.00
52975;BME280;38839;45.186;5.720;2023-12-04T04:34:30;99087.78;;;-0.07;100.00
52975;BME280;38839;45.186;5.720;2023-12-04T04:36:55;99082.31;;;-0.16;100.00
52975;BME280;38839;45.186;5.720;2023-12-04T04:39:21;99073.03;;;-0.13;100.00
52975;BME280;38839;45.186;5.720;2023-12-04T04:41:46;99081.44;;;-0.17;100.00
52975;BME280;38839;45.186;5.720;2023-12-04T04:44:11;99076.28;;;-0.17;100.00
52975;BME280;38839;45.186;5.720;2023-12-04T04:46:37;99062.78;;;-0.13;100.00
52975;BME280;38839;45.186;5.720;2023-12-04T04:49:02;99054.06;;;-0.18;100.00
52975;BME280;38839;45.186;5.720;2023-12-04T04:51:31;99046.47;;;-0.15;100.00
52975;BME280;38839;45.186;5.720;2023-12-04T04:53:57;99059.28;;;-0.15;100.00
52975;BME280;38839;45.186;5.720;2023-12-04T04:56:22;99058.31;;;-0.18;100.00
52975;BME280;38839;45.186;5.720;2023-12-04T04:58:47;99066.00;;;-0.18;100.00
52975;BME280;38839;45.186;5.720;2023-12-04T05:01:14;99059.28;;;-0.15;100.00
52975;BME280;38839;45.186;5.720;2023-12-04T05:03:40;99072.06;;;-0.16;100.00
52975;BME280;38839;45.186;5.720;2023-12-04T05:06:05;99037.81;;;-0.18;100.00
52975;BME280;38839;45.186;5.720;2023-12-04T05:08:31;99038.66;;;-0.18;100.00
52975;BME280;38839;45.186;5.720;2023-12-04T05:10:56;99043.03;;;-0.15;100.00
52975;BME280;38839;45.186;5.720;2023-12-04T05:13:21;99016.75;;;-0.10;100.00
52975;BME280;38839;45.186;5.720;2023-12-04T05:15:47;99019.53;;;-0.04;100.00
52975;BME280;38839;45.186;5.720;2023-12-04T05:18:12;99022.09;;;-0.04;100.00
52975;BME280;38839;45.186;5.720;2023-12-04T05:20:37;99004.97;;;-0.05;100.00
52975;BME280;38839;45.186;5.720;2023-12-04T05:23:03;99005.09;;;-0.02;100.00
52975;BME280;38839;45.186;5.720;2023-12-04T05:25:28;98982.16;;;0.03;100.00
52975;BME280;38839;45.186;5.720;2023-12-04T05:27:53;99010.66;;;0.11;100.00
52975;BME280;38839;45.186;5.720;2023-12-04T05:30:19;99004.81;;;0.15;100.00
52975;BME280;38839;45.186;5.720;2023-12-04T05:32:44;99004.88;;;0.16;100.00
52975;BME280;38839;45.186;5.720;2023-12-04T05:35:10;99025.44;;;0.18;100.00
52975;BME280;38839;45.186;5.720;2023-12-04T05:37:35;99032.34;;;0.19;100.00
52975;BME280;38839;45.186;5.720;2023-12-04T05:40:01;99028.78;;;0.15;100.00
52975;BME280;38839;45.186;5.720;2023-12-04T05:42:26;99016.06;;;0.18;100.00
52975;BME280;38839;45.186;5.720;2023-12-04T05:44:51;99021.22;;;0.20;100.00
52975;BME280;38839;45.186;5.720;2023-12-04T05:47:20;99011.09;;;0.23;100.00
52975;BME280;38839;45.186;5.720;2023-12-04T05:49:46;98996.69;;;0.27;100.00
52975;BME280;38839;45.186;5.720;2023-12-04T05:52:11;99001.91;;;0.30;100.00
52975;BME280;38839;45.186;5.720;2023-12-04T05:54:36;98994.66;;;0.18;100.00
52975;BME280;38839;45.186;5.720;2023-12-04T05:57:02;98998.06;;;0.43;100.00
52975;BME280;38839;45.186;5.720;2023-12-04T05:59:27;99008.56;;;0.49;100.00
52975;BME280;38839;45.186;5.720;2023-12-04T06:01:53;99001.91;;;0.54;100.00
52975;BME280;38839;45.186;5.720;2023-12-04T06:04:18;99005.47;;;0.59;100.00
52975;BME280;38839;45.186;5.720;2023-12-04T06:06:43;99014.31;;;0.67;100.00
52975;BME280;38839;45.186;5.720;2023-12-04T06:09:09;99004.47;;;0.79;100.00
52975;BME280;38839;45.186;5.720;2023-12-04T06:11:34;98988.59;;;0.91;100.00
52975;BME280;38839;45.186;5.720;2023-12-04T06:13:59;99008.03;;;1.10;100.00
52975;BME280;38839;45.186;5.720;2023-12-04T06:16:25;98993.31;;;1.05;100.00
52975;BME280;38839;45.186;5.720;2023-12-04T06:18:50;98971.78;;;1.01;100.00
52975;BME280;38839;45.186;5.720;2023-12-04T06:21:16;98976.97;;;1.03;100.00
52975;BME280;38839;45.186;5.720;2023-12-04T06:23:41;98969.66;;;1.15;100.00
52975;BME280;38839;45.186;5.720;2023-12-04T06:26:07;98960.97;;;1.11;100.00
52975;BME280;38839;45.186;5.720;2023-12-04T06:28:34;98935.09;;;1.05;100.00
52975;BME280;38839;45.186;5.720;2023-12-04T06:30:59;98951.97;;;0.97;100.00
52975;BME280;38839;45.186;5.720;2023-12-04T06:33:25;98935.63;;;0.95;100.00
52975;BME280;38839;45.186;5.720;2023-12-04T06:35:51;98934.75;;;0.94;100.00
52975;BME280;38839;45.186;5.720;2023-12-04T06:38:18;98943.34;;;0.95;100.00
52975;BME280;38839;45.186;5.720;2023-12-04T06:40:44;98937.03;;;0.85;100.00
52975;BME280;38839;45.186;5.720;2023-12-04T06:43:10;98920.09;;;0.92;100.00
52975;BME280;38839;45.186;5.720;2023-12-04T06:45:36;98927.56;;;1.11;100.00
52975;BME280;38839;45.186;5.720;2023-12-04T06:48:01;98909.66;;;1.43;100.00
52975;BME280;38839;45.186;5.720;2023-12-04T06:50:27;98912.34;;;1.46;100.00
52975;BME280;38839;45.186;5.720;2023-12-04T06:52:52;98888.88;;;1.66;100.00
52975;BME280;38839;45.186;5.720;2023-12-04T06:55:18;98898.75;;;1.50;100.00
52975;BME280;38839;45.186;5.720;2023-12-04T06:57:43;98888.38;;;1.47;100.00
52975;BME280;38839;45.186;5.720;2023-12-04T07:00:09;98890.75;;;1.41;100.00
52975;BME280;38839;45.186;5.720;2023-12-04T07:02:39;98884.63;;;1.36;100.00
52975;BME280;38839;45.186;5.720;2023-12-04T07:05:05;98884.69;;;1.39;100.00
52975;BME280;38839;45.186;5.720;2023-12-04T07:07:30;98892.34;;;1.36;100.00
52975;BME280;38839;45.186;5.720;2023-12-04T07:09:56;98914.91;;;1.17;100.00
52975;BME280;38839;45.186;5.720;2023-12-04T07:12:21;98913.34;;;1.23;100.00
52975;BME280;38839;45.186;5.720;2023-12-04T07:14:47;98880.09;;;1.27;100.00
52975;BME280;38839;45.186;5.720;2023-12-04T07:17:12;98882.31;;;1.45;100.00
52975;BME280;38839;45.186;5.720;2023-12-04T07:19:37;98895.16;;;1.45;100.00
52975;BME280;38839;45.186;5.720;2023-12-04T07:22:03;98904.69;;;1.48;100.00
52975;BME280;38839;45.186;5.720;2023-12-04T07:24:29;98900.66;;;1.57;100.00
52975;BME280;38839;45.186;5.720;2023-12-04T07:26:54;98888.19;;;1.41;100.00
52975;BME280;38839;45.186;5.720;2023-12-04T07:29:19;98904.63;;;1.46;100.00
52975;BME280;38839;45.186;5.720;2023-12-04T07:31:45;98904.13;;;1.59;100.00
52975;BME280;38839;45.186;5.720;2023-12-04T07:34:10;98906.88;;;1.64;100.00
52975;BME280;38839;45.186;5.720;2023-12-04T07:36:36;98903.88;;;1.50;100.00
52975;BME280;38839;45.186;5.720;2023-12-04T07:39:02;98898.47;;;1.41;100.00
52975;BME280;38839;45.186;5.720;2023-12-04T07:41:28;98896.63;;;1.35;100.00
52975;BME280;38839;45.186;5.720;2023-12-04T07:43:53;98907.19;;;1.46;100.00
52975;BME280;38839;45.186;5.720;2023-12-04T07:46:19;98894.25;;;1.43;100.00
52975;BME280;38839;45.186;5.720;2023-12-04T07:48:45;98882.81;;;1.64;100.00
52975;BME280;38839;45.186;5.720;2023-12-04T07:51:11;98876.59;;;1.55;100.00
52975;BME280;38839;45.186;5.720;2023-12-04T07:53:36;98883.56;;;1.59;100.00
52975;BME280;38839;45.186;5.720;2023-12-04T07:56:02;98884.63;;;1.66;100.00
52975;BME280;38839;45.186;5.720;2023-12-04T07:58:31;98898.13;;;1.59;100.00
52975;BME280;38839;45.186;5.720;2023-12-04T08:00:59;98907.00;;;1.69;100.00
52975;BME280;38839;45.186;5.720;2023-12-04T08:03:25;98900.25;;;1.72;100.00
52975;BME280;38839;45.186;5.720;2023-12-04T08:05:51;98901.84;;;1.69;100.00
52975;BME280;38839;45.186;5.720;2023-12-04T08:08:16;98902.81;;;1.74;100.00
52975;BME280;38839;45.186;5.720;2023-12-04T08:10:42;98902.59;;;1.65;100.00
52975;BME280;38839;45.186;5.720;2023-12-04T08:13:07;98883.66;;;1.63;100.00
52975;BME280;38839;45.186;5.720;2023-12-04T08:15:33;98895.03;;;1.71;100.00
52975;BME280;38839;45.186;5.720;2023-12-04T08:17:58;98906.31;;;1.76;100.00
52975;BME280;38839;45.186;5.720;2023-12-04T08:20:23;98911.38;;;1.73;100.00
52975;BME280;38839;45.186;5.720;2023-12-04T08:22:49;98920.72;;;1.69;100.00
52975;BME280;38839;45.186;5.720;2023-12-04T08:25:14;98893.84;;;1.59;100.00
52975;BME280;38839;45.186;5.720;2023-12-04T08:27:40;98890.75;;;1.71;100.00
52975;BME280;38839;45.186;5.720;2023-12-04T08:30:06;98903.56;;;1.70;100.00
52975;BME280;38839;45.186;5.720;2023-12-04T08:32:32;98915.63;;;2.03;100.00
52975;BME280;38839;45.186;5.720;2023-12-04T08:34:57;98911.78;;;1.88;100.00
52975;BME280;38839;45.186;5.720;2023-12-04T08:37:22;98924.59;;;1.85;100.00
52975;BME280;38839;45.186;5.720;2023-12-04T08:39:48;98928.69;;;1.78;100.00
52975;BME280;38839;45.186;5.720;2023-12-04T08:42:13;98931.16;;;1.75;100.00
52975;BME280;38839;45.186;5.720;2023-12-04T08:44:39;98923.91;;;1.92;100.00
52975;BME280;38839;45.186;5.720;2023-12-04T08:47:05;98922.53;;;2.04;100.00
52975;BME280;38839;45.186;5.720;2023-12-04T08:49:31;98936.59;;;2.16;100.00
52975;BME280;38839;45.186;5.720;2023-12-04T08:51:58;98938.53;;;2.25;100.00
52975;BME280;38839;45.186;5.720;2023-12-04T08:54:24;98954.72;;;2.21;100.00
52975;BME280;38839;45.186;5.720;2023-12-04T08:56:49;98919.41;;;2.15;100.00
52975;BME280;38839;45.186;5.720;2023-12-04T08:59:15;98928.69;;;2.10;100.00
52975;BME280;38839;45.186;5.720;2023-12-04T09:01:42;98931.22;;;2.09;100.00
52975;BME280;38839;45.186;5.720;2023-12-04T09:04:08;98934.69;;;2.09;100.00
52975;BME280;38839;45.186;5.720;2023-12-04T09:06:34;98925.91;;;2.03;100.00
52975;BME280;38839;45.186;5.720;2023-12-04T09:08:59;98936.19;;;2.03;100.00
52975;BME280;38839;45.186;5.720;2023-12-04T09:11:24;98936.38;;;2.09;100.00
52975;BME280;38839;45.186;5.720;2023-12-04T09:13:50;98933.94;;;2.13;100.00
52975;BME280;38839;45.186;5.720;2023-12-04T09:16:15;98908.75;;;2.35;100.00
52975;BME280;38839;45.186;5.720;2023-12-04T09:18:40;98916.47;;;2.35;100.00
52975;BME280;38839;45.186;5.720;2023-12-04T09:21:06;98927.03;;;2.46;100.00
52975;BME280;38839;45.186;5.720;2023-12-04T09:23:33;98913.19;;;2.40;100.00
52975;BME280;38839;45.186;5.720;2023-12-04T09:25:59;98914.69;;;2.32;100.00
52975;BME280;38839;45.186;5.720;2023-12-04T09:28:25;98918.09;;;2.31;100.00
52975;BME280;38839;45.186;5.720;2023-12-04T09:30:50;98909.22;;;2.53;100.00
52975;BME280;38839;45.186;5.720;2023-12-04T09:33:15;98920.94;;;2.75;100.00
52975;BME280;38839;45.186;5.720;2023-12-04T09:35:41;98922.75;;;2.79;100.00
52975;BME280;38839;45.186;5.720;2023-12-04T09:38:07;98922.75;;;3.16;100.00
52975;BME280;38839;45.186;5.720;2023-12-04T09:40:33;98918.25;;;3.48;100.00
52975;BME280;38839;45.186;5.720;2023-12-04T09:42:58;98927.94;;;3.58;100.00
52975;BME280;38839;45.186;5.720;2023-12-04T09:45:24;98924.78;;;3.72;100.00
52975;BME280;38839;45.186;5.720;2023-12-04T09:47:50;98923.19;;;3.78;100.00
52975;BME280;38839;45.186;5.720;2023-12-04T09:50:16;98929.38;;;3.87;100.00
52975;BME280;38839;45.186;5.720;2023-12-04T09:52:47;98926.97;;;3.94;100.00
52975;BME280;38839;45.186;5.720;2023-12-04T09:55:15;98917.22;;;4.25;100.00
52975;BME280;38839;45.186;5.720;2023-12-04T09:57:41;98930.84;;;4.18;100.00
52975;BME280;38839;45.186;5.720;2023-12-04T10:00:09;98913.13;;;4.38;100.00
52975;BME280;38839;45.186;5.720;2023-12-04T10:02:35;98905.75;;;4.58;100.00
52975;BME280;38839;45.186;5.720;2023-12-04T10:05:01;98894.75;;;4.71;100.00
52975;BME280;38839;45.186;5.720;2023-12-04T10:07:30;98909.88;;;5.01;100.00
52975;BME280;38839;45.186;5.720;2023-12-04T10:09:55;98891.53;;;5.46;100.00
52975;BME280;38839;45.186;5.720;2023-12-04T10:12:20;98885.97;;;5.85;100.00
52975;BME280;38839;45.186;5.720;2023-12-04T10:15:02;98892.28;;;6.06;100.00
52975;BME280;38839;45.186;5.720;2023-12-04T10:17:33;98885.41;;;6.11;100.00
52975;BME280;38839;45.186;5.720;2023-12-04T10:20:13;98862.84;;;6.00;100.00
52975;BME280;38839;45.186;5.720;2023-12-04T10:22:59;98875.03;;;6.08;100.00
52975;BME280;38839;45.186;5.720;2023-12-04T10:25:26;98859.44;;;6.01;100.00
52975;BME280;38839;45.186;5.720;2023-12-04T10:27:52;98853.44;;;6.06;100.00
52975;BME280;38839;45.186;5.720;2023-12-04T10:30:27;98851.75;;;6.11;100.00
52975;BME280;38839;45.186;5.720;2023-12-04T10:32:57;98849.13;;;6.08;100.00
52975;BME280;38839;45.186;5.720;2023-12-04T10:35:32;98823.31;;;6.14;100.00
52975;BME280;38839;45.186;5.720;2023-12-04T10:37:59;98823.34;;;6.20;100.00
52975;BME280;38839;45.186;5.720;2023-12-04T10:40:29;98818.28;;;6.32;100.00
52975;BME280;38839;45.186;5.720;2023-12-04T10:43:10;98808.75;;;6.31;100.00
52975;BME280;38839;45.186;5.720;2023-12-04T10:45:36;98813.16;;;6.38;100.00
52975;BME280;38839;45.186;5.720;2023-12-04T10:48:03;98804.56;;;6.45;100.00
52975;BME280;38839;45.186;5.720;2023-12-04T10:50:32;98788.19;;;6.51;100.00
52975;BME280;38839;45.186;5.720;2023-12-04T10:53:00;98794.28;;;6.55;100.00
52975;BME280;38839;45.186;5.720;2023-12-04T10:55:26;98789.16;;;6.67;100.00
52975;BME280;38839;45.186;5.720;2023-12-04T10:57:51;98780.53;;;6.65;100.00
52975;BME280;38839;45.186;5.720;2023-12-04T11:00:20;98772.78;;;6.74;100.00
52975;BME280;38839;45.186;5.720;2023-12-04T11:02:48;98765.00;;;6.70;100.00
52975;BME280;38839;45.186;5.720;2023-12-04T11:05:15;98752.06;;;6.73;100.00
52975;BME280;38839;45.186;5.720;2023-12-04T11:07:56;98754.63;;;6.71;100.00
52975;BME280;38839;45.186;5.720;2023-12-04T11:10:26;98747.69;;;6.67;100.00
52975;BME280;38839;45.186;5.720;2023-12-04T11:13:00;98735.63;;;6.72;100.00
52975;BME280;38839;45.186;5.720;2023-12-04T11:15:29;98739.19;;;6.90;100.00
52975;BME280;38839;45.186;5.720;2023-12-04T11:17:59;98733.16;;;6.98;100.00
52975;BME280;38839;45.186;5.720;2023-12-04T11:20:27;98731.47;;;7.08;100.00
52975;BME280;38839;45.186;5.720;2023-12-04T11:22:55;98741.78;;;6.90;100.00
52975;BME280;38839;45.186;5.720;2023-12-04T11:25:21;98726.84;;;6.49;100.00
52975;BME280;38839;45.186;5.720;2023-12-04T11:27:51;98730.88;;;6.08;100.00
52975;BME280;38839;45.186;5.720;2023-12-04T11:30:17;98744.38;;;5.76;100.00
52975;BME280;38839;45.186;5.720;2023-12-04T11:32:48;98734.91;;;5.78;100.00
52975;BME280;38839;45.186;5.720;2023-12-04T11:35:15;98724.75;;;5.98;100.00
52975;BME280;38839;45.186;5.720;2023-12-04T11:37:43;98730.00;;;6.08;100.00
52975;BME280;38839;45.186;5.720;2023-12-04T11:40:11;98724.66;;;5.89;100.00
52975;BME280;38839;45.186;5.720;2023-12-04T11:42:37;98736.25;;;5.42;100.00
52975;BME280;38839;45.186;5.720;2023-12-04T11:45:05;98729.03;;;5.14;100.00
52975;BME280;38839;45.186;5.720;2023-12-04T11:47:31;98733.09;;;4.93;100.00
52975;BME280;38839;45.186;5.720;2023-12-04T11:50:13;98733.88;;;4.86;100.00
52975;BME280;38839;45.186;5.720;2023-12-04T11:52:38;98737.19;;;4.74;100.00
52975;BME280;38839;45.186;5.720;2023-12-04T11:55:04;98723.47;;;4.80;100.00
52975;BME280;38839;45.186;5.720;2023-12-04T11:57:38;98733.81;;;4.81;100.00
52975;BME280;38839;45.186;5.720;2023-12-04T12:02:38;98719.34;;;4.94;100.00
52975;BME280;38839;45.186;5.720;2023-12-04T12:05:04;98718.53;;;5.00;100.00
52975;BME280;38839;45.186;5.720;2023-12-04T12:07:30;98733.81;;;4.81;100.00
52975;BME280;38839;45.186;5.720;2023-12-04T12:09:55;98709.50;;;4.67;100.00
52975;BME280;38839;45.186;5.720;2023-12-04T12:12:21;98743.03;;;4.62;100.00
52975;BME280;38839;45.186;5.720;2023-12-04T12:14:46;98737.00;;;4.62;100.00
52975;BME280;38839;45.186;5.720;2023-12-04T12:17:13;98733.47;;;4.57;100.00
52975;BME280;38839;45.186;5.720;2023-12-04T12:19:39;98742.75;;;4.42;100.00
52975;BME280;38839;45.186;5.720;2023-12-04T12:22:04;98740.06;;;4.36;100.00
52975;BME280;38839;45.186;5.720;2023-12-04T12:24:30;98738.84;;;4.71;100.00
52975;BME280;38839;45.186;5.720;2023-12-04T12:26:55;98738.44;;;4.41;100.00
52975;BME280;38839;45.186;5.720;2023-12-04T12:29:21;98737.25;;;4.21;100.00
52975;BME280;38839;45.186;5.720;2023-12-04T12:31:46;98741.44;;;4.13;100.00
52975;BME280;38839;45.186;5.720;2023-12-04T12:34:11;98742.94;;;3.98;100.00
52975;BME280;38839;45.186;5.720;2023-12-04T12:36:37;98749.72;;;3.93;100.00
52975;BME280;38839;45.186;5.720;2023-12-04T12:39:03;98735.81;;;3.85;100.00
52975;BME280;38839;45.186;5.720;2023-12-04T12:41:33;98732.72;;;4.05;100.00
52975;BME280;38839;45.186;5.720;2023-12-04T12:44:00;98736.63;;;3.82;100.00
52975;BME280;38839;45.186;5.720;2023-12-04T12:46:26;98752.94;;;3.80;100.00
52975;BME280;38839;45.186;5.720;2023-12-04T12:48:51;98732.44;;;3.89;100.00
52975;BME280;38839;45.186;5.720;2023-12-04T12:51:18;98720.50;;;3.94;100.00
52975;BME280;38839;45.186;5.720;2023-12-04T12:53:44;98731.53;;;3.87;100.00